createdAt,value
2023-02-17T00:01:33.340Z,204.87
2023-02-17T00:04:01.415Z,141.40
2023-02-17T00:06:30.783Z,147.13
2023-02-17T00:08:59.622Z,109.00
2023-02-17T00:11:28.473Z,102.03
2023-02-17T00:13:56.597Z,241.27
2023-02-17T00:16:26.279Z,148.83
2023-02-17T00:18:56.341Z,184.70
2023-02-17T00:21:25.285Z,609.53
2023-02-17T00:23:53.318Z,602.83
2023-02-17T00:26:21.748Z,328.10
2023-02-17T00:28:50.117Z,514.67
2023-02-17T00:31:20.569Z,206.63
2023-02-17T00:33:48.256Z,146.03
2023-02-17T00:36:20.730Z,199.17
2023-02-17T00:38:51.296Z,146.67
2023-02-17T00:41:19.761Z,123.20
2023-02-17T00:43:47.922Z,102.40
2023-02-17T00:46:17.284Z,349.80
2023-02-17T00:48:46.024Z,147.50
2023-02-17T00:51:13.768Z,117.90
2023-02-17T00:53:41.511Z,139.70
2023-02-17T00:56:09.087Z,126.33
2023-02-17T00:58:36.808Z,175.10
2023-02-17T01:01:04.965Z,131.47
2023-02-17T01:03:34.438Z,105.70
2023-02-17T01:06:07.746Z,136.40
2023-02-17T01:08:34.878Z,168.27
2023-02-17T01:11:05.560Z,122.40
2023-02-17T01:13:32.953Z,98.00
2023-02-17T01:16:00.073Z,103.27
2023-02-17T01:18:27.333Z,387.93
2023-02-17T01:20:54.875Z,320.77
2023-02-17T01:23:22.092Z,292.90
2023-02-17T01:25:50.778Z,162.93
2023-02-17T01:28:21.921Z,156.23
2023-02-17T01:30:49.819Z,120.80
2023-02-17T01:33:17.377Z,155.17
2023-02-17T01:35:45.916Z,165.27
2023-02-17T01:38:13.020Z,95.00
2023-02-17T01:40:48.076Z,203.37
2023-02-17T01:43:17.896Z,209.97
2023-02-17T01:45:53.600Z,117.40
2023-02-17T01:48:31.229Z,125.70
2023-02-17T01:51:03.704Z,120.07
2023-02-17T01:53:42.165Z,102.10
2023-02-17T01:56:11.602Z,92.93
2023-02-17T01:58:43.253Z,141.07
2023-02-17T02:01:10.469Z,145.77
2023-02-17T02:03:39.430Z,93.53
2023-02-17T02:06:12.001Z,93.23
2023-02-17T02:08:49.316Z,148.87
2023-02-17T02:11:16.429Z,111.07
2023-02-17T02:13:46.341Z,101.43
2023-02-17T02:16:18.024Z,107.07
2023-02-17T02:19:14.850Z,97.33
2023-02-17T02:22:03.866Z,89.80
2023-02-17T02:24:49.703Z,79.17
2023-02-17T02:27:39.566Z,83.97
2023-02-17T02:30:27.107Z,60.50
2023-02-17T02:33:06.363Z,60.43
2023-02-17T02:35:44.887Z,56.80
2023-02-17T02:38:40.948Z,51.83
2023-02-17T02:41:34.447Z,51.70
2023-02-17T02:44:09.182Z,43.77
2023-02-17T02:46:36.950Z,46.17
2023-02-17T02:49:05.150Z,42.70
2023-02-17T02:51:51.339Z,43.97
2023-02-17T02:55:03.144Z,43.00
2023-02-17T02:57:45.733Z,41.07
2023-02-17T03:00:24.038Z,42.03
2023-02-17T03:03:02.552Z,42.67
2023-02-17T03:05:53.410Z,39.97
2023-02-17T03:08:35.091Z,40.37
2023-02-17T03:11:04.203Z,41.90
2023-02-17T03:13:39.547Z,39.17
2023-02-17T03:16:09.527Z,39.90
2023-02-17T03:18:36.676Z,41.03
2023-02-17T03:21:12.632Z,36.50
2023-02-17T03:23:39.868Z,38.50
2023-02-17T03:26:07.190Z,38.83
2023-02-17T03:28:34.822Z,38.67
2023-02-17T03:31:02.107Z,38.93
2023-02-17T03:33:29.542Z,41.93
2023-02-17T03:35:57.275Z,39.20
2023-02-17T03:38:24.612Z,38.37
2023-02-17T03:40:53.809Z,37.00
2023-02-17T03:43:20.899Z,39.20
2023-02-17T03:45:48.489Z,41.73
2023-02-17T03:48:15.491Z,37.60
2023-02-17T03:50:42.558Z,43.23
2023-02-17T03:53:11.458Z,41.70
2023-02-17T03:55:38.713Z,44.40
2023-02-17T03:58:05.948Z,42.33
2023-02-17T04:00:33.493Z,42.03
2023-02-17T04:03:00.621Z,40.80
2023-02-17T04:05:29.192Z,46.33
2023-02-17T04:07:56.296Z,43.13
2023-02-17T04:10:23.340Z,45.57
2023-02-17T04:12:50.527Z,46.20
2023-02-17T04:15:17.817Z,42.20
2023-02-17T04:17:44.942Z,42.43
2023-02-17T04:20:12.435Z,43.80
2023-02-17T04:22:39.897Z,43.70
2023-02-17T04:25:09.612Z,42.43
2023-02-17T04:27:38.357Z,42.33
2023-02-17T04:30:07.561Z,40.37
2023-02-17T04:32:35.221Z,42.53
2023-02-17T04:35:02.875Z,49.93
2023-02-17T04:37:29.923Z,51.90
2023-02-17T04:39:56.955Z,60.13
2023-02-17T04:42:26.856Z,50.47
2023-02-17T04:44:59.537Z,55.47
2023-02-17T04:47:27.052Z,60.83
2023-02-17T04:49:56.307Z,60.40
2023-02-17T04:52:23.636Z,61.50
2023-02-17T04:54:50.637Z,68.23
2023-02-17T04:57:18.106Z,53.17
2023-02-17T04:59:45.108Z,42.93
2023-02-17T05:02:12.299Z,59.40
2023-02-17T05:04:39.373Z,56.50
2023-02-17T05:07:06.473Z,62.67
2023-02-17T05:09:33.498Z,66.00
2023-02-17T05:12:00.583Z,71.53
2023-02-17T05:14:27.682Z,78.47
2023-02-17T05:16:54.697Z,73.87
2023-02-17T05:19:21.703Z,71.70
2023-02-17T05:21:49.014Z,78.93
2023-02-17T05:24:16.091Z,69.47
2023-02-17T05:26:43.692Z,65.23
2023-02-17T05:29:10.618Z,72.60
2023-02-17T05:31:37.849Z,70.87
2023-02-17T05:34:05.427Z,67.23
2023-02-17T05:36:32.556Z,77.13
2023-02-17T05:39:00.668Z,97.13
2023-02-17T05:41:28.795Z,93.43
2023-02-17T05:43:55.824Z,90.03
2023-02-17T05:46:23.329Z,82.43
2023-02-17T05:48:50.553Z,85.63
2023-02-17T05:51:17.774Z,85.97
2023-02-17T05:53:45.226Z,86.47
2023-02-17T05:56:12.577Z,90.43
2023-02-17T05:58:39.730Z,82.37
2023-02-17T06:01:10.973Z,79.17
2023-02-17T06:03:38.277Z,75.77
2023-02-17T06:06:07.525Z,79.20
2023-02-17T06:08:36.529Z,88.67
2023-02-17T06:11:04.359Z,79.43
2023-02-17T06:13:33.516Z,95.93
2023-02-17T06:16:01.819Z,92.40
2023-02-17T06:18:29.651Z,88.60
2023-02-17T06:20:58.197Z,82.87
2023-02-17T06:23:27.063Z,76.23
2023-02-17T06:25:54.340Z,82.33
2023-02-17T06:28:21.640Z,92.10
2023-02-17T06:30:51.581Z,87.07
2023-02-17T06:33:18.820Z,89.50
2023-02-17T06:35:50.770Z,80.53
2023-02-17T06:38:18.703Z,83.30
2023-02-17T06:40:46.037Z,84.17
2023-02-17T06:43:13.507Z,88.63
2023-02-17T06:45:40.985Z,84.07
2023-02-17T06:48:09.259Z,80.23
2023-02-17T06:50:36.729Z,77.07
2023-02-17T06:53:04.821Z,76.33
2023-02-17T06:55:32.929Z,86.70
2023-02-17T06:58:00.347Z,77.53
2023-02-17T07:00:28.019Z,69.30
2023-02-17T07:02:55.352Z,74.70
2023-02-17T07:05:22.909Z,79.07
2023-02-17T07:07:50.001Z,73.73
2023-02-17T07:10:17.420Z,72.37
2023-02-17T07:12:45.261Z,76.67
2023-02-17T07:15:14.826Z,68.83
2023-02-17T07:17:44.868Z,70.43
2023-02-17T07:20:12.748Z,76.63
2023-02-17T07:22:40.110Z,73.73
2023-02-17T07:25:07.981Z,75.67
2023-02-17T07:27:41.715Z,68.33
2023-02-17T07:30:09.285Z,71.67
2023-02-17T07:32:36.624Z,77.17
2023-02-17T07:35:04.078Z,87.23
2023-02-17T07:37:31.237Z,79.37
2023-02-17T07:39:58.550Z,66.67
2023-02-17T07:42:28.362Z,79.20
2023-02-17T07:44:55.841Z,65.03
2023-02-17T07:47:24.554Z,67.10
2023-02-17T07:49:53.337Z,71.23
2023-02-17T07:52:21.144Z,72.73
2023-02-17T07:54:48.315Z,67.83
2023-02-17T07:57:15.944Z,66.03
2023-02-17T07:59:43.572Z,64.47
2023-02-17T08:02:12.320Z,64.53
2023-02-17T08:04:39.893Z,64.50
2023-02-17T08:07:07.574Z,62.23
2023-02-17T08:09:53.208Z,60.53
2023-02-17T08:12:40.018Z,58.13
2023-02-17T08:15:09.867Z,65.27
2023-02-17T08:17:36.964Z,66.33
2023-02-17T08:20:08.688Z,57.03
2023-02-17T08:22:37.268Z,60.90
2023-02-17T08:25:06.490Z,56.00
2023-02-17T08:27:33.642Z,59.83
2023-02-17T08:30:00.854Z,59.87
2023-02-17T08:32:28.054Z,57.07
2023-02-17T08:34:58.990Z,62.87
2023-02-17T08:37:26.226Z,58.73
2023-02-17T08:39:54.041Z,59.90
2023-02-17T08:42:22.023Z,62.90
2023-02-17T08:44:49.345Z,54.30
2023-02-17T08:47:16.440Z,58.00
2023-02-17T08:49:43.773Z,55.93
2023-02-17T08:52:10.893Z,56.80
2023-02-17T08:54:39.142Z,55.40
2023-02-17T08:57:06.662Z,58.90
2023-02-17T08:59:34.315Z,57.83
2023-02-17T09:02:02.061Z,61.37
2023-02-17T09:04:29.261Z,59.70
2023-02-17T09:07:00.162Z,57.23
2023-02-17T09:09:30.506Z,55.63
2023-02-17T09:11:58.726Z,62.03
2023-02-17T09:14:27.505Z,58.30
2023-02-17T09:16:57.679Z,57.77
2023-02-17T09:19:26.274Z,58.50
2023-02-17T09:21:55.262Z,59.83
2023-02-17T09:24:23.791Z,62.60
2023-02-17T09:26:52.191Z,67.00
2023-02-17T09:29:20.269Z,60.80
2023-02-17T09:31:50.421Z,67.57
2023-02-17T09:34:17.942Z,71.03
2023-02-17T09:36:45.858Z,74.13
2023-02-17T09:39:17.635Z,71.70
2023-02-17T09:41:48.661Z,71.57
2023-02-17T09:44:32.876Z,71.67
2023-02-17T09:47:05.594Z,64.33
2023-02-17T09:49:41.942Z,74.40
2023-02-17T09:52:41.445Z,68.83
2023-02-17T09:55:13.661Z,70.97
2023-02-17T09:57:51.512Z,68.63
2023-02-17T10:00:33.280Z,62.37
2023-02-17T10:03:18.099Z,67.67
2023-02-17T10:06:01.078Z,63.07
2023-02-17T10:08:33.429Z,61.43
2023-02-17T10:11:24.334Z,57.73
2023-02-17T10:13:54.850Z,55.37
2023-02-17T10:16:31.322Z,47.07
2023-02-17T10:19:24.335Z,50.63
2023-02-17T10:22:11.802Z,47.60
2023-02-17T10:24:39.090Z,49.63
2023-02-17T10:27:23.511Z,39.63
2023-02-17T10:30:28.405Z,46.63
2023-02-17T10:33:20.417Z,46.73
2023-02-17T10:35:56.702Z,47.87
2023-02-17T10:38:47.398Z,45.83
2023-02-17T10:41:18.041Z,44.63
2023-02-17T10:43:48.344Z,40.43
2023-02-17T10:46:23.901Z,37.67
2023-02-17T10:48:53.762Z,37.90
2023-02-17T10:51:26.893Z,37.50
2023-02-17T10:54:09.058Z,32.60
2023-02-17T10:56:41.409Z,31.23
2023-02-17T10:59:20.538Z,30.73
2023-02-17T11:01:49.200Z,31.23
2023-02-17T11:04:16.276Z,44.90
2023-02-17T11:06:50.933Z,32.30
2023-02-17T11:09:32.908Z,32.27
2023-02-17T11:12:02.103Z,36.50
2023-02-17T11:14:32.722Z,32.47
2023-02-17T11:17:02.852Z,31.67
2023-02-17T11:19:36.547Z,33.23
2023-02-17T11:22:07.904Z,32.73
2023-02-17T11:24:35.994Z,30.77
2023-02-17T11:27:09.244Z,30.40
2023-02-17T11:29:36.560Z,28.03
2023-02-17T11:32:09.065Z,33.83
2023-02-17T11:34:39.822Z,30.37
2023-02-17T11:37:09.863Z,30.77
2023-02-17T11:39:42.493Z,29.77
2023-02-17T11:42:27.507Z,30.13
2023-02-17T11:44:59.304Z,33.57
2023-02-17T11:47:42.548Z,29.67
2023-02-17T11:50:35.385Z,31.27
2023-02-17T11:53:46.656Z,30.13
2023-02-17T11:56:26.913Z,29.63
2023-02-17T11:59:40.788Z,30.33
2023-02-17T12:02:19.099Z,26.83
2023-02-17T12:05:06.060Z,31.13
2023-02-17T12:07:47.857Z,33.10
2023-02-17T12:10:23.300Z,32.10
2023-02-17T12:13:08.682Z,30.63
2023-02-17T12:15:57.759Z,27.77
2023-02-17T12:18:30.844Z,23.63
2023-02-17T12:21:23.250Z,27.43
2023-02-17T12:24:12.172Z,26.17
2023-02-17T12:26:45.694Z,26.67
2023-02-17T12:29:45.568Z,25.33
2023-02-17T12:32:24.882Z,25.17
2023-02-17T12:35:04.517Z,26.37
2023-02-17T12:37:38.852Z,24.90
2023-02-17T12:40:40.009Z,22.97
2023-02-17T12:43:34.195Z,20.53
2023-02-17T12:46:06.417Z,23.93
2023-02-17T12:48:56.916Z,23.43
2023-02-17T12:51:32.568Z,22.73
2023-02-17T12:54:32.223Z,20.60
2023-02-17T12:57:15.647Z,25.37
2023-02-17T12:59:46.789Z,24.27
2023-02-17T13:02:20.955Z,21.83
2023-02-17T13:04:55.880Z,25.73
2023-02-17T13:07:41.986Z,25.47
2023-02-17T13:10:28.341Z,24.57
2023-02-17T13:13:22.685Z,24.40
2023-02-17T13:16:01.566Z,23.80
2023-02-17T13:18:33.277Z,22.83
2023-02-17T13:21:33.657Z,23.40
2023-02-17T13:24:34.901Z,19.97
2023-02-17T13:27:22.246Z,27.07
2023-02-17T13:30:22.746Z,23.10
2023-02-17T13:33:08.927Z,21.20
2023-02-17T13:35:40.058Z,27.13
2023-02-17T13:38:10.437Z,21.33
2023-02-17T13:40:44.127Z,21.80
2023-02-17T13:43:19.899Z,19.80
2023-02-17T13:46:02.067Z,19.90
2023-02-17T13:48:32.799Z,18.57
2023-02-17T13:51:02.808Z,15.80
2023-02-17T13:53:37.947Z,21.17
2023-02-17T13:56:27.717Z,21.20
2023-02-17T13:59:06.356Z,20.73
2023-02-17T14:01:38.501Z,18.70
2023-02-17T14:04:37.609Z,19.13
2023-02-17T14:07:10.772Z,18.17
2023-02-17T14:09:38.841Z,19.47
2023-02-17T14:12:23.920Z,21.87
2023-02-17T14:14:51.186Z,22.03
2023-02-17T14:17:32.826Z,18.47
2023-02-17T14:20:01.284Z,18.03
2023-02-17T14:22:33.320Z,16.50
2023-02-17T14:25:11.906Z,16.53
2023-02-17T14:27:48.355Z,17.90
2023-02-17T14:30:28.819Z,18.57
2023-02-17T14:33:16.491Z,15.83
2023-02-17T14:35:56.109Z,15.10
2023-02-17T14:38:35.283Z,18.80
2023-02-17T14:41:10.123Z,17.77
2023-02-17T14:43:37.673Z,15.53
2023-02-17T14:46:05.739Z,17.63
2023-02-17T14:48:33.949Z,17.07
2023-02-17T14:51:01.610Z,15.73
2023-02-17T14:53:34.275Z,14.53
2023-02-17T14:56:09.245Z,15.63
2023-02-17T14:58:37.064Z,18.47
2023-02-17T15:01:05.996Z,16.90
2023-02-17T15:03:33.414Z,15.40
2023-02-17T15:06:01.257Z,16.20
2023-02-17T15:08:35.382Z,19.67
2023-02-17T15:11:03.501Z,21.63
2023-02-17T15:13:32.685Z,16.73
2023-02-17T15:16:00.105Z,17.47
2023-02-17T15:18:28.257Z,18.00
2023-02-17T15:20:55.993Z,16.13
2023-02-17T15:23:26.482Z,14.33
2023-02-17T15:25:56.268Z,15.13
2023-02-17T15:28:24.020Z,17.20
2023-02-17T15:30:54.658Z,15.40
2023-02-17T15:33:23.826Z,13.57
2023-02-17T15:35:54.683Z,15.03
2023-02-17T15:38:22.947Z,17.17
2023-02-17T15:40:50.090Z,16.83
2023-02-17T15:43:24.486Z,17.30
2023-02-17T15:45:51.946Z,18.10
2023-02-17T15:48:25.104Z,14.90
2023-02-17T15:50:53.337Z,15.03
2023-02-17T15:53:22.848Z,17.43
2023-02-17T15:55:51.497Z,17.50
2023-02-17T15:58:22.964Z,17.53
2023-02-17T16:00:51.367Z,21.87
2023-02-17T16:03:19.911Z,23.00
2023-02-17T16:05:48.046Z,19.03
2023-02-17T16:08:17.980Z,21.07
2023-02-17T16:10:47.287Z,18.63
2023-02-17T16:13:20.292Z,21.13
2023-02-17T16:15:49.197Z,18.87
2023-02-17T16:18:24.011Z,21.87
2023-02-17T16:20:52.386Z,21.20
2023-02-17T16:23:19.942Z,18.03
2023-02-17T16:25:49.230Z,17.43
2023-02-17T16:28:19.834Z,19.23
2023-02-17T16:30:49.681Z,15.93
2023-02-17T16:33:19.065Z,19.43
2023-02-17T16:35:46.548Z,18.10
2023-02-17T16:38:30.523Z,20.13
2023-02-17T16:40:59.441Z,21.43
2023-02-17T16:43:31.626Z,14.97
2023-02-17T16:46:03.206Z,18.53
2023-02-17T16:48:35.128Z,16.67
2023-02-17T16:51:02.938Z,17.13
2023-02-17T16:53:30.320Z,18.03
2023-02-17T16:55:58.639Z,17.23
2023-02-17T16:58:26.604Z,17.47
2023-02-17T17:00:56.127Z,17.90
2023-02-17T17:03:25.615Z,17.20
2023-02-17T17:05:53.414Z,17.43
2023-02-17T17:08:24.558Z,17.33
2023-02-17T17:10:52.542Z,15.57
2023-02-17T17:13:19.651Z,15.63
2023-02-17T17:15:48.136Z,17.37
2023-02-17T17:18:21.752Z,17.20
2023-02-17T17:20:50.186Z,17.43
2023-02-17T17:23:20.438Z,16.53
2023-02-17T17:25:49.272Z,20.30
2023-02-17T17:28:20.089Z,19.30
2023-02-17T17:30:48.443Z,21.37
2023-02-17T17:33:16.558Z,17.47
2023-02-17T17:35:43.792Z,18.87
2023-02-17T17:38:15.501Z,19.30
2023-02-17T17:40:53.375Z,24.13
2023-02-17T17:43:22.302Z,21.43
2023-02-17T17:45:50.915Z,22.30
2023-02-17T17:48:18.140Z,20.53
2023-02-17T17:50:45.485Z,27.10
2023-02-17T17:53:12.779Z,22.23
2023-02-17T17:55:39.847Z,25.07
2023-02-17T17:58:07.217Z,21.03
2023-02-17T18:00:34.280Z,23.60
2023-02-17T18:03:05.830Z,21.77
2023-02-17T18:05:32.955Z,21.60
2023-02-17T18:08:03.063Z,25.67
2023-02-17T18:10:30.205Z,23.13
2023-02-17T18:12:57.748Z,24.60
2023-02-17T18:15:26.721Z,24.90
2023-02-17T18:17:53.853Z,21.20
2023-02-17T18:20:22.303Z,21.57
2023-02-17T18:22:49.356Z,21.23
2023-02-17T18:25:16.719Z,20.17
2023-02-17T18:27:47.106Z,21.13
2023-02-17T18:30:18.857Z,22.87
2023-02-17T18:32:48.145Z,27.40
2023-02-17T18:35:15.892Z,24.60
2023-02-17T18:37:44.189Z,23.97
2023-02-17T18:40:13.753Z,28.07
2023-02-17T18:42:43.089Z,28.10
2023-02-17T18:45:15.991Z,31.53
2023-02-17T18:47:43.594Z,17.10
2023-02-17T18:50:11.457Z,22.60
2023-02-17T18:52:40.462Z,23.40
2023-02-17T18:55:08.649Z,22.43
2023-02-17T18:57:36.632Z,22.97
2023-02-17T19:00:05.881Z,25.20
2023-02-17T19:02:35.268Z,21.43
2023-02-17T19:05:03.397Z,28.27
2023-02-17T19:07:31.897Z,27.67
2023-02-17T19:09:59.794Z,27.60
2023-02-17T19:12:26.975Z,29.47
2023-02-17T19:14:57.334Z,26.23
2023-02-17T19:17:25.451Z,31.03
2023-02-17T19:19:53.014Z,27.37
2023-02-17T19:22:20.652Z,26.80
2023-02-17T19:24:54.958Z,27.43
2023-02-17T19:27:22.182Z,30.50
2023-02-17T19:29:49.256Z,27.90
2023-02-17T19:32:16.480Z,37.30
2023-02-17T19:34:43.642Z,26.70
2023-02-17T19:37:10.796Z,28.80
2023-02-17T19:39:37.892Z,22.23
2023-02-17T19:42:05.135Z,24.60
2023-02-17T19:44:32.522Z,26.97
2023-02-17T19:47:00.945Z,32.80
2023-02-17T19:49:28.208Z,25.10
2023-02-17T19:51:55.959Z,31.53
2023-02-17T19:54:24.229Z,34.07
2023-02-17T19:56:52.269Z,35.17
2023-02-17T19:59:19.795Z,22.93
2023-02-17T20:01:47.346Z,21.60
2023-02-17T20:04:14.437Z,23.77
2023-02-17T20:06:47.720Z,24.70
2023-02-17T20:09:17.924Z,28.50
2023-02-17T20:11:46.882Z,34.33
2023-02-17T20:14:14.473Z,33.10
2023-02-17T20:16:41.729Z,31.30
2023-02-17T20:19:08.845Z,29.50
2023-02-17T20:21:38.700Z,27.57
2023-02-17T20:24:06.279Z,37.00
2023-02-17T20:26:37.938Z,33.80
2023-02-17T20:29:05.486Z,27.47
2023-02-17T20:31:35.019Z,26.43
2023-02-17T20:34:09.535Z,26.90
2023-02-17T20:36:36.913Z,28.90
2023-02-17T20:39:04.315Z,28.77
2023-02-17T20:41:31.584Z,26.20
2023-02-17T20:44:02.960Z,25.77
2023-02-17T20:46:32.237Z,32.10
2023-02-17T20:48:59.365Z,28.87
2023-02-17T20:51:26.806Z,24.57
2023-02-17T20:53:54.435Z,31.03
2023-02-17T20:56:24.994Z,28.80
2023-02-17T20:58:53.204Z,27.77
2023-02-17T21:01:20.236Z,27.93
2023-02-17T21:03:47.773Z,22.87
2023-02-17T21:06:19.739Z,32.97
2023-02-17T21:08:48.218Z,26.13
2023-02-17T21:11:15.258Z,30.07
2023-02-17T21:13:42.481Z,30.93
2023-02-17T21:16:17.034Z,27.43
2023-02-17T21:18:46.900Z,25.53
2023-02-17T21:21:15.110Z,26.33
2023-02-17T21:23:42.906Z,32.87
2023-02-17T21:26:11.669Z,35.47
2023-02-17T21:28:39.142Z,28.97
2023-02-17T21:31:08.114Z,32.40
2023-02-17T21:33:42.630Z,32.40
2023-02-17T21:36:12.016Z,32.13
2023-02-17T21:38:39.379Z,32.13
2023-02-17T21:41:15.574Z,36.40
2023-02-17T21:44:03.147Z,40.67
2023-02-17T21:46:30.958Z,44.17
2023-02-17T21:49:03.902Z,30.37
2023-02-17T21:51:31.797Z,30.97
2023-02-17T21:54:02.431Z,33.73
2023-02-17T21:56:29.983Z,34.27
2023-02-17T21:58:58.007Z,33.13
2023-02-17T22:01:27.724Z,40.47
2023-02-17T22:03:56.163Z,40.17
2023-02-17T22:06:26.115Z,39.27
2023-02-17T22:08:53.137Z,36.60
2023-02-17T22:11:30.206Z,34.70
2023-02-17T22:14:01.559Z,33.97
2023-02-17T22:16:34.424Z,40.47
2023-02-17T22:19:03.382Z,41.37
2023-02-17T22:21:30.877Z,53.20
2023-02-17T22:23:59.571Z,38.90
2023-02-17T22:26:27.581Z,36.37
2023-02-17T22:28:55.476Z,49.57
2023-02-17T22:31:25.819Z,46.33
2023-02-17T22:33:53.680Z,41.17
2023-02-17T22:36:23.050Z,45.30
2023-02-17T22:38:51.791Z,46.50
2023-02-17T22:41:21.668Z,46.03
2023-02-17T22:43:49.806Z,47.77
2023-02-17T22:46:19.456Z,48.17
2023-02-17T22:48:48.287Z,42.27
2023-02-17T22:51:18.498Z,53.13
2023-02-17T22:53:46.200Z,52.20
2023-02-17T22:56:13.873Z,45.13
2023-02-17T22:58:41.306Z,48.33
2023-02-17T23:01:13.734Z,46.77
2023-02-17T23:03:41.611Z,49.23
2023-02-17T23:06:17.911Z,49.80
2023-02-17T23:08:46.080Z,48.40
2023-02-17T23:11:16.194Z,43.67
2023-02-17T23:13:45.619Z,49.10
2023-02-17T23:16:22.279Z,44.27
2023-02-17T23:18:49.495Z,45.23
2023-02-17T23:21:16.611Z,45.37
2023-02-17T23:23:43.724Z,47.03
2023-02-17T23:26:11.020Z,49.83
2023-02-17T23:28:38.225Z,56.83
2023-02-17T23:31:10.185Z,40.90
2023-02-17T23:33:37.806Z,39.80
2023-02-17T23:36:06.544Z,40.37
2023-02-17T23:38:37.335Z,41.37
2023-02-17T23:41:05.503Z,48.87
2023-02-17T23:43:34.157Z,46.53
2023-02-17T23:46:02.642Z,43.13
2023-02-17T23:48:30.919Z,45.67
2023-02-17T23:51:04.033Z,44.87
2023-02-17T23:53:32.270Z,45.07
2023-02-17T23:56:14.268Z,41.40
2023-02-17T23:58:41.659Z,43.90
